createdAt,value
2018-06-10T15:09:23.447Z,98760.41
2018-06-10T15:11:52.337Z,98763.38
2018-06-10T15:14:21.335Z,98766.55
2018-06-10T15:16:53.719Z,98764.75
2018-06-10T15:19:24.839Z,98765.05
2018-06-10T15:21:56.643Z,98769.95
2018-06-10T15:24:28.878Z,98767.70
2018-06-10T15:27:01.492Z,98773.73
2018-06-10T15:29:34.407Z,98778.75
2018-06-10T15:32:06.847Z,98779.33
2018-06-10T15:34:39.484Z,98783.42
2018-06-10T15:37:12.117Z,98780.36
2018-06-10T15:39:41.315Z,98776.98
2018-06-10T15:42:10.490Z,98781.14
2018-06-10T15:44:39.845Z,98783.23
2018-06-10T15:47:08.900Z,98777.34
2018-06-10T15:49:37.792Z,98784.94
2018-06-10T15:52:07.518Z,98788.56
2018-06-10T15:54:36.462Z,98787.05
2018-06-10T15:57:05.593Z,98780.44
2018-06-10T15:59:35.039Z,98781.91
2018-06-10T16:02:04.126Z,98782.78
2018-06-10T16:04:33.041Z,98788.04
2018-06-10T16:07:02.479Z,98779.38
2018-06-10T16:09:31.510Z,98782.02
2018-06-10T16:12:00.444Z,98787.50
2018-06-10T16:14:29.460Z,98790.80
2018-06-10T16:16:58.553Z,98790.80
2018-06-10T16:19:27.470Z,98796.88
2018-06-10T16:21:56.553Z,98803.13
2018-06-10T16:24:25.585Z,98805.34
2018-06-10T16:26:54.676Z,98806.33
2018-06-10T16:29:24.132Z,98809.49
2018-06-10T16:31:53.097Z,98816.53
2018-06-10T16:34:22.234Z,98814.84
2018-06-10T16:36:51.302Z,98822.09
2018-06-10T16:39:20.331Z,98825.50
2018-06-10T16:41:49.495Z,98825.70
2018-06-10T16:44:19.098Z,98828.15
2018-06-10T16:46:49.424Z,98831.20
2018-06-10T16:49:23.306Z,98834.81
2018-06-10T16:51:56.070Z,98828.03
2018-06-10T16:54:29.369Z,98837.64
2018-06-10T16:57:02.282Z,98839.34
2018-06-10T16:59:34.452Z,98831.91
2018-06-10T17:02:07.655Z,98842.48
2018-06-10T17:04:41.085Z,98836.41
2018-06-10T17:07:13.912Z,98839.23
2018-06-10T17:09:46.160Z,98843.54
2018-06-10T17:12:18.382Z,98842.50
2018-06-10T17:14:50.304Z,98849.81
2018-06-10T17:17:22.946Z,98846.05
2018-06-10T17:19:59.070Z,98842.31
2018-06-10T17:22:30.198Z,98847.23
2018-06-10T17:25:02.205Z,98840.39
2018-06-10T17:27:34.048Z,98850.20
2018-06-10T17:30:07.347Z,98850.02
2018-06-10T17:32:39.408Z,98858.87
2018-06-10T17:35:12.886Z,98853.91
2018-06-10T17:37:43.405Z,98858.25
2018-06-10T17:40:14.367Z,98865.97
2018-06-10T17:42:44.693Z,98873.72
2018-06-10T17:45:14.482Z,98865.87
2018-06-10T17:47:43.550Z,98873.59
2018-06-10T17:50:14.018Z,98874.73
2018-06-10T17:52:43.109Z,98881.31
2018-06-10T17:55:13.328Z,98884.57
2018-06-10T17:57:42.300Z,98894.69
2018-06-10T18:00:11.219Z,98899.11
2018-06-10T18:02:41.865Z,98898.75
2018-06-10T18:05:11.504Z,98893.13
2018-06-10T18:07:40.547Z,98893.23
2018-06-10T18:10:09.863Z,98901.27
2018-06-10T18:12:39.015Z,98908.36
2018-06-10T18:15:08.150Z,98915.91
2018-06-10T18:17:37.762Z,98922.38
2018-06-10T18:20:07.354Z,98928.11
2018-06-10T18:22:38.144Z,98935.38
2018-06-10T18:25:07.123Z,98941.36
2018-06-10T18:27:35.968Z,98940.52
2018-06-10T18:30:05.624Z,98946.81
2018-06-10T18:32:34.504Z,98953.41
2018-06-10T18:35:03.533Z,98952.36
2018-06-10T18:37:32.901Z,98953.56
2018-06-10T18:40:01.848Z,98961.84
2018-06-10T18:42:31.280Z,98968.14
2018-06-10T18:45:00.753Z,98967.69
2018-06-10T18:47:29.719Z,98970.73
2018-06-10T18:49:58.679Z,98961.99
2018-06-10T18:52:27.889Z,98964.05
2018-06-10T18:54:58.406Z,98966.79
2018-06-10T18:57:27.545Z,98970.02
2018-06-10T18:59:57.384Z,98974.17
2018-06-10T19:02:26.372Z,98984.49
2018-06-10T19:04:55.640Z,98980.27
2018-06-10T19:07:24.604Z,98975.69
2018-06-10T19:16:39.348Z,99005.66
2018-06-10T19:19:08.384Z,99010.30
2018-06-10T19:21:37.391Z,99012.42
2018-06-10T19:24:07.013Z,99009.53
2018-06-10T19:26:36.158Z,99020.16
2018-06-10T19:29:05.255Z,99031.95
2018-06-10T19:31:34.207Z,99038.45
2018-06-10T19:34:03.071Z,99032.40
2018-06-10T19:36:32.109Z,99040.31
2018-06-10T19:39:01.332Z,99040.52
2018-06-10T19:41:30.495Z,99041.04
2018-06-10T19:43:59.446Z,99034.87
2018-06-10T19:46:28.326Z,99041.81
2018-06-10T19:48:57.190Z,99042.33
2018-06-10T19:51:26.137Z,99047.93
2018-06-10T19:53:55.204Z,99045.09
2018-06-10T19:56:24.096Z,99042.34
2018-06-10T19:58:52.940Z,99035.91
2018-06-10T20:01:22.250Z,99042.09
2018-06-10T20:03:51.178Z,99050.61
2018-06-10T20:06:20.147Z,99050.75
2018-06-10T20:08:49.248Z,99045.05
2018-06-10T20:11:18.283Z,99060.32
2018-06-10T20:13:47.672Z,99054.23
2018-06-10T20:16:17.244Z,99061.73
2018-06-10T20:18:46.182Z,99057.29
2018-06-10T20:21:15.367Z,99059.52
2018-06-10T20:23:44.526Z,99063.34
2018-06-10T20:26:13.395Z,99065.53
2018-06-10T20:28:42.412Z,99066.73
2018-06-10T20:31:11.828Z,99077.55
2018-06-10T20:33:40.959Z,99073.31
2018-06-10T20:36:10.081Z,99079.91
2018-06-10T20:38:39.478Z,99080.61
2018-06-10T20:41:08.356Z,99078.94
2018-06-10T20:43:37.303Z,99080.98
2018-06-10T20:46:06.478Z,99083.75
2018-06-10T20:48:35.772Z,99084.59
2018-06-10T20:51:05.436Z,99087.29
2018-06-10T20:53:35.355Z,99090.83
2018-06-10T20:56:04.441Z,99087.50
2018-06-10T20:58:35.077Z,99084.12
2018-06-10T21:01:04.327Z,99090.53
2018-06-10T21:03:33.356Z,99096.28
2018-06-10T21:06:02.953Z,99100.63
2018-06-10T21:08:32.094Z,99104.38
2018-06-10T21:11:01.083Z,99095.95
2018-06-10T21:13:30.664Z,99105.73
2018-06-10T21:15:59.824Z,99108.09
2018-06-10T21:18:29.125Z,99111.63
2018-06-10T21:20:58.765Z,99112.47
2018-06-10T21:23:27.665Z,99112.47
2018-06-10T21:25:56.700Z,99114.98
2018-06-10T21:28:26.453Z,99112.47
2018-06-10T21:30:55.631Z,99107.58
2018-06-10T21:33:24.591Z,99111.45
2018-06-10T21:35:53.685Z,99109.77
2018-06-10T21:38:22.603Z,99110.25
2018-06-10T21:40:51.799Z,99108.09
2018-06-10T21:43:21.365Z,99113.81
2018-06-10T21:45:50.413Z,99112.80
2018-06-10T21:48:19.585Z,99117.73
2018-06-10T21:50:48.675Z,99122.29
2018-06-10T21:53:17.989Z,99115.91
2018-06-10T21:55:46.811Z,99116.61
2018-06-10T21:58:16.234Z,99110.89
2018-06-10T22:00:45.527Z,99108.70
2018-06-10T22:03:14.717Z,99101.83
2018-06-10T22:05:43.781Z,99104.24
2018-06-10T22:08:12.891Z,99098.69
2018-06-10T22:10:41.846Z,99101.55
2018-06-10T22:13:11.580Z,99107.64
2018-06-10T22:15:40.639Z,99096.84
2018-06-10T22:18:09.515Z,99104.73
2018-06-10T22:20:39.632Z,99103.38
2018-06-10T22:23:08.573Z,99104.05
2018-06-10T22:25:37.694Z,99096.82
2018-06-10T22:28:06.864Z,99105.34
2018-06-10T22:30:35.920Z,99109.53
2018-06-10T22:33:05.009Z,99106.84
2018-06-10T22:35:34.125Z,99105.43
2018-06-10T22:38:03.051Z,99103.38
2018-06-10T22:40:31.995Z,99110.61
2018-06-10T22:43:00.923Z,99104.73
2018-06-10T22:45:30.040Z,99104.05
2018-06-10T22:47:59.097Z,99106.74
2018-06-10T22:50:28.286Z,99097.66
2018-06-10T22:55:04.535Z,99100.19
2018-06-10T22:57:34.719Z,99098.30
2018-06-10T23:00:03.812Z,99100.41
2018-06-10T23:02:32.680Z,99098.77
2018-06-10T23:05:01.923Z,99105.64
2018-06-10T23:07:30.944Z,99099.46
2018-06-10T23:10:00.031Z,99098.12
2018-06-10T23:12:29.203Z,99092.61
2018-06-10T23:14:58.320Z,99091.77
2018-06-10T23:17:27.297Z,99094.92
2018-06-10T23:19:56.559Z,99104.81
2018-06-10T23:22:25.429Z,99105.08
2018-06-10T23:24:54.428Z,99107.61
2018-06-10T23:27:23.787Z,99101.13
2018-06-10T23:29:52.695Z,99107.11
2018-06-10T23:32:21.692Z,99107.66
2018-06-10T23:34:51.128Z,99104.33
2018-06-10T23:37:20.067Z,99096.55
2018-06-10T23:39:49.163Z,99096.38
2018-06-10T23:42:18.592Z,99092.61
2018-06-10T23:44:47.576Z,99094.22
2018-06-10T23:47:16.703Z,99098.38
2018-06-10T23:49:46.305Z,99094.84
2018-06-10T23:52:15.097Z,99093.30
2018-06-10T23:54:44.038Z,99092.50
2018-06-10T23:57:13.054Z,99096.66
2018-06-10T23:59:42.004Z,99104.66
